createdAt,value
2019-02-05T00:00:46.127Z,431.77
2019-02-05T00:03:16.340Z,345.55
2019-02-05T00:05:45.774Z,211.18
2019-02-05T00:08:14.437Z,180.03
2019-02-05T00:10:43.114Z,163.03
2019-02-05T00:13:12.141Z,157.93
2019-02-05T00:15:40.839Z,157.43
2019-02-05T00:18:09.656Z,203.18
2019-02-05T00:20:38.165Z,241.10
2019-02-05T00:23:06.794Z,300.75
2019-02-05T00:25:35.419Z,326.23
2019-02-05T00:28:04.187Z,286.02
2019-02-05T00:30:32.878Z,241.53
2019-02-05T00:33:01.650Z,200.72
2019-02-05T00:35:30.304Z,189.18
2019-02-05T00:37:58.862Z,183.03
2019-02-05T00:40:27.531Z,226.57
2019-02-05T00:42:56.066Z,169.05
2019-02-05T00:45:24.967Z,193.50
2019-02-05T00:47:53.523Z,159.65
2019-02-05T00:50:22.889Z,156.32
2019-02-05T00:52:51.560Z,139.18
2019-02-05T00:55:20.900Z,138.85
2019-02-05T00:57:50.427Z,128.82
2019-02-05T01:00:31.930Z,128.10
2019-02-05T01:03:00.768Z,133.75
2019-02-05T01:05:29.494Z,136.85
2019-02-05T01:07:58.361Z,147.22
2019-02-05T01:10:27.348Z,152.47
2019-02-05T01:12:57.058Z,146.07
2019-02-05T01:15:26.826Z,139.03
2019-02-05T01:17:55.355Z,151.18
2019-02-05T01:20:24.249Z,139.88
2019-02-05T01:22:53.168Z,141.15
2019-02-05T01:25:22.613Z,142.82
2019-02-05T01:27:52.441Z,144.20
2019-02-05T01:30:24.087Z,143.43
2019-02-05T01:32:52.951Z,152.65
2019-02-05T01:35:22.086Z,138.47
2019-02-05T01:37:50.793Z,143.78
2019-02-05T01:40:21.944Z,140.90
2019-02-05T01:42:50.534Z,139.75
2019-02-05T01:45:20.762Z,139.55
2019-02-05T01:47:50.479Z,131.15
2019-02-05T01:50:21.714Z,132.65
2019-02-05T01:52:50.337Z,130.12
2019-02-05T01:55:19.311Z,133.15
2019-02-05T01:57:47.964Z,125.78
2019-02-05T02:00:21.911Z,122.75
2019-02-05T02:02:50.625Z,131.67
2019-02-05T02:05:21.364Z,134.50
2019-02-05T02:07:50.155Z,125.00
2019-02-05T02:10:24.485Z,121.62
2019-02-05T02:12:53.717Z,114.72
2019-02-05T02:15:22.432Z,120.70
2019-02-05T02:17:51.086Z,119.42
2019-02-05T02:20:21.739Z,114.42
2019-02-05T02:22:50.815Z,119.90
2019-02-05T02:25:19.756Z,110.90
2019-02-05T02:27:50.010Z,112.55
2019-02-05T02:30:38.747Z,101.15
2019-02-05T02:33:07.371Z,106.22
2019-02-05T02:35:36.350Z,105.52
2019-02-05T02:38:05.500Z,106.32
2019-02-05T02:40:34.077Z,93.00
2019-02-05T02:43:03.649Z,101.85
2019-02-05T02:45:33.197Z,109.25
2019-02-05T02:48:02.004Z,102.82
2019-02-05T02:50:30.840Z,108.13
2019-02-05T02:52:59.514Z,103.00
2019-02-05T02:55:28.183Z,103.40
2019-02-05T02:57:56.763Z,99.97
2019-02-05T03:00:25.384Z,98.73
2019-02-05T03:02:53.894Z,93.20
2019-02-05T03:05:24.384Z,92.78
2019-02-05T03:07:53.514Z,94.62
2019-02-05T03:10:27.845Z,94.06
2019-02-05T03:12:56.733Z,97.72
2019-02-05T03:15:25.746Z,89.40
2019-02-05T03:17:54.343Z,86.28
2019-02-05T03:20:22.894Z,77.45
2019-02-05T03:22:51.955Z,82.75
2019-02-05T03:25:23.277Z,84.03
2019-02-05T03:27:53.916Z,83.95
2019-02-05T03:30:25.710Z,82.05
2019-02-05T03:32:56.143Z,76.17
2019-02-05T03:35:25.167Z,72.72
2019-02-05T03:37:54.358Z,80.80
2019-02-05T03:40:29.523Z,77.82
2019-02-05T03:42:58.623Z,78.47
2019-02-05T03:45:29.175Z,79.45
2019-02-05T03:48:02.699Z,75.72
2019-02-05T03:50:33.833Z,80.67
2019-02-05T03:53:11.931Z,89.97
2019-02-05T03:55:55.337Z,83.82
2019-02-05T03:58:35.958Z,85.20
2019-02-05T04:01:13.619Z,85.30
2019-02-05T04:03:47.905Z,78.15
2019-02-05T04:06:25.552Z,92.53
2019-02-05T04:09:13.499Z,89.97
2019-02-05T04:12:03.295Z,88.07
2019-02-05T04:15:00.703Z,84.13
2019-02-05T04:17:44.335Z,89.72
2019-02-05T04:20:30.822Z,83.42
2019-02-05T04:23:23.892Z,90.60
2019-02-05T04:26:11.900Z,101.20
2019-02-05T04:28:55.982Z,103.53
2019-02-05T04:31:53.197Z,94.20
2019-02-05T04:34:44.640Z,103.65
2019-02-05T04:37:37.165Z,95.62
2019-02-05T04:40:31.563Z,95.03
2019-02-05T04:43:07.373Z,84.87
2019-02-05T04:45:44.770Z,96.42
2019-02-05T04:48:33.276Z,81.92
2019-02-05T04:51:10.601Z,86.28
2019-02-05T04:53:54.078Z,91.90
2019-02-05T04:56:42.192Z,76.57
2019-02-05T04:59:30.601Z,80.45
2019-02-05T05:02:23.963Z,79.17
2019-02-05T05:04:58.420Z,83.05
2019-02-05T05:07:30.003Z,85.07
2019-02-05T05:09:59.262Z,77.40
2019-02-05T05:12:28.934Z,82.77
2019-02-05T05:14:57.641Z,79.40
2019-02-05T05:17:26.282Z,81.22
2019-02-05T05:19:54.904Z,83.95
2019-02-05T05:22:24.788Z,74.70
2019-02-05T05:24:53.625Z,88.78
2019-02-05T05:27:22.621Z,87.65
2019-02-05T05:29:52.120Z,88.03
2019-02-05T05:32:21.540Z,90.60
2019-02-05T05:34:50.254Z,86.47
2019-02-05T05:37:17.661Z,87.85
2019-02-05T05:39:46.256Z,89.70
2019-02-05T05:42:15.831Z,91.80
2019-02-05T05:44:45.269Z,95.03
2019-02-05T05:47:13.824Z,89.85
2019-02-05T05:49:43.352Z,85.30
2019-02-05T05:52:13.902Z,90.90
2019-02-05T05:54:42.464Z,87.12
2019-02-05T05:57:11.042Z,82.33
2019-02-05T05:59:39.627Z,82.40
2019-02-05T06:02:08.208Z,84.90
2019-02-05T06:04:36.782Z,88.05
2019-02-05T06:07:05.410Z,86.50
2019-02-05T06:09:34.060Z,81.35
2019-02-05T06:12:02.711Z,86.07
2019-02-05T06:14:31.347Z,82.00
2019-02-05T06:16:59.966Z,83.03
2019-02-05T06:19:28.632Z,91.80
2019-02-05T06:21:57.146Z,91.87
2019-02-05T06:24:25.722Z,91.90
2019-02-05T06:26:54.390Z,89.25
2019-02-05T06:29:23.149Z,98.05
2019-02-05T06:31:51.800Z,94.90
2019-02-05T06:34:20.382Z,108.12
2019-02-05T06:36:49.012Z,100.35
2019-02-05T06:39:17.569Z,97.35
2019-02-05T06:41:46.295Z,95.23
2019-02-05T06:44:14.842Z,93.92
2019-02-05T06:46:44.016Z,87.37
2019-02-05T06:49:12.759Z,92.88
2019-02-05T06:51:41.800Z,82.17
2019-02-05T06:54:11.242Z,81.97
2019-02-05T06:56:42.346Z,83.22
2019-02-05T06:59:10.107Z,89.03
2019-02-05T07:01:38.711Z,90.53
2019-02-05T07:04:07.642Z,90.05
2019-02-05T07:06:36.278Z,85.20
2019-02-05T07:09:08.309Z,79.82
2019-02-05T07:11:37.019Z,89.20
2019-02-05T07:14:06.439Z,88.03
2019-02-05T07:16:35.154Z,90.38
2019-02-05T07:19:04.071Z,90.62
2019-02-05T07:21:32.671Z,95.80
2019-02-05T07:24:01.828Z,102.58
2019-02-05T07:26:30.472Z,99.00
2019-02-05T07:29:02.072Z,86.12
2019-02-05T07:31:29.451Z,91.35
2019-02-05T07:33:57.979Z,83.22
2019-02-05T07:36:26.544Z,86.42
2019-02-05T07:38:55.037Z,81.22
2019-02-05T07:41:23.629Z,89.70
2019-02-05T07:43:52.440Z,90.32
2019-02-05T07:46:21.075Z,88.07
2019-02-05T07:48:50.522Z,84.45
2019-02-05T07:51:19.075Z,86.47
2019-02-05T07:53:47.668Z,76.50
2019-02-05T07:56:17.276Z,74.80
2019-02-05T07:58:45.884Z,66.20
2019-02-05T08:01:17.527Z,68.60
2019-02-05T08:03:45.142Z,64.50
2019-02-05T08:06:13.826Z,68.72
2019-02-05T08:08:45.521Z,69.77
2019-02-05T08:11:14.387Z,68.87
2019-02-05T08:13:43.029Z,65.03
2019-02-05T08:16:12.283Z,60.23
2019-02-05T08:18:41.138Z,62.17
2019-02-05T08:21:09.708Z,54.00
2019-02-05T08:23:38.341Z,49.73
2019-02-05T08:26:07.050Z,48.43
2019-02-05T08:28:40.883Z,49.70
2019-02-05T08:31:06.301Z,50.63
2019-02-05T08:33:35.490Z,53.83
2019-02-05T08:36:04.883Z,47.70
2019-02-05T08:38:33.607Z,44.17
2019-02-05T08:41:02.348Z,49.00
2019-02-05T08:43:30.937Z,46.23
2019-02-05T08:45:59.726Z,48.53
2019-02-05T08:48:28.507Z,49.00
2019-02-05T08:50:57.662Z,50.10
2019-02-05T08:53:26.313Z,48.37
2019-02-05T08:55:55.036Z,51.27
2019-02-05T08:58:31.243Z,50.83
2019-02-05T09:00:54.525Z,49.77
2019-02-05T09:03:23.283Z,46.83
2019-02-05T09:05:52.914Z,53.80
2019-02-05T09:08:21.552Z,51.63
2019-02-05T09:10:50.562Z,50.23
2019-02-05T09:13:20.211Z,51.63
2019-02-05T09:15:48.796Z,54.13
2019-02-05T09:18:17.414Z,50.83
2019-02-05T09:20:45.998Z,49.53
2019-02-05T09:23:14.569Z,48.87
2019-02-05T09:25:43.694Z,49.50
2019-02-05T09:28:14.097Z,44.80
2019-02-05T09:30:42.794Z,52.20
2019-02-05T09:33:13.935Z,46.47
2019-02-05T09:35:42.601Z,46.00
2019-02-05T09:38:11.285Z,42.53
2019-02-05T09:40:40.258Z,49.80
2019-02-05T09:43:09.336Z,39.97
2019-02-05T09:45:38.409Z,39.03
2019-02-05T09:48:07.073Z,47.33
2019-02-05T09:50:44.159Z,50.37
2019-02-05T09:53:06.557Z,46.73
2019-02-05T09:55:36.263Z,39.33
2019-02-05T09:58:05.286Z,36.43
2019-02-05T10:00:39.558Z,41.85
2019-02-05T10:03:08.687Z,43.60
2019-02-05T10:05:37.682Z,36.13
2019-02-05T10:08:07.511Z,93.47
2019-02-05T10:10:36.352Z,65.10
2019-02-05T10:13:05.895Z,50.90
2019-02-05T10:15:36.854Z,72.23
2019-02-05T10:18:07.307Z,41.27
2019-02-05T10:20:35.868Z,52.53
2019-02-05T10:23:05.480Z,55.23
2019-02-05T10:25:34.380Z,40.23
2019-02-05T10:28:03.038Z,34.50
2019-02-05T10:30:37.150Z,56.50
2019-02-05T10:33:07.039Z,37.97
2019-02-05T10:35:35.728Z,49.57
2019-02-05T10:38:05.011Z,66.37
2019-02-05T10:40:33.795Z,33.50
2019-02-05T10:43:03.950Z,29.47
2019-02-05T10:45:32.988Z,29.07
2019-02-05T10:48:02.038Z,47.97
2019-02-05T10:50:30.742Z,42.47
2019-02-05T10:52:59.525Z,36.43
2019-02-05T10:55:28.965Z,34.73
2019-02-05T10:57:57.715Z,32.83
2019-02-05T11:00:28.599Z,40.53
2019-02-05T11:02:58.891Z,34.97
2019-02-05T11:05:29.037Z,32.30
2019-02-05T11:07:57.746Z,32.93
2019-02-05T11:10:26.579Z,37.73
2019-02-05T11:12:55.342Z,37.43
2019-02-05T11:15:29.552Z,30.83
2019-02-05T11:17:58.459Z,35.97
2019-02-05T11:20:28.645Z,40.20
2019-02-05T11:23:00.228Z,29.80
2019-02-05T11:25:28.954Z,32.03
2019-02-05T11:27:57.602Z,35.30
2019-02-05T11:30:28.819Z,29.43
2019-02-05T11:32:57.556Z,32.30
2019-02-05T11:35:26.213Z,40.07
2019-02-05T11:37:54.777Z,34.97
2019-02-05T11:40:31.722Z,31.97
2019-02-05T11:43:00.403Z,34.37
2019-02-05T11:45:29.671Z,38.50
2019-02-05T11:47:59.212Z,33.83
2019-02-05T11:50:27.904Z,36.47
2019-02-05T11:52:57.125Z,27.10
2019-02-05T11:55:28.033Z,31.70
2019-02-05T11:57:56.997Z,31.13
2019-02-05T12:00:32.787Z,33.63
2019-02-05T12:02:57.987Z,30.03
2019-02-05T12:05:26.766Z,29.50
2019-02-05T12:07:55.747Z,32.27
2019-02-05T12:10:25.386Z,29.80
2019-02-05T12:12:54.044Z,33.57
2019-02-05T12:15:22.772Z,32.97
2019-02-05T12:17:51.602Z,32.73
2019-02-05T12:20:20.644Z,32.45
2019-02-05T12:22:50.439Z,33.67
2019-02-05T12:25:26.423Z,34.90
2019-02-05T12:27:54.997Z,35.87
2019-02-05T12:30:44.458Z,44.30
2019-02-05T12:33:06.055Z,41.17
2019-02-05T12:35:34.881Z,41.83
2019-02-05T12:38:04.110Z,47.63
2019-02-05T12:40:32.825Z,47.90
2019-02-05T12:43:01.488Z,48.87
2019-02-05T12:45:33.030Z,47.20
2019-02-05T12:48:02.716Z,46.60
2019-02-05T12:50:39.303Z,47.77
2019-02-05T12:53:07.998Z,62.97
2019-02-05T12:55:37.044Z,59.77
2019-02-05T12:58:06.415Z,59.27
2019-02-05T13:00:41.083Z,58.33
2019-02-05T13:03:10.774Z,53.37
2019-02-05T13:05:40.309Z,42.73
2019-02-05T13:08:09.305Z,54.50
2019-02-05T13:10:40.757Z,51.77
2019-02-05T13:13:10.695Z,49.30
2019-02-05T13:15:39.457Z,52.90
2019-02-05T13:18:08.395Z,58.80
2019-02-05T13:20:37.840Z,44.13
2019-02-05T13:23:07.411Z,56.27
2019-02-05T13:25:37.316Z,59.60
2019-02-05T13:28:08.416Z,65.27
2019-02-05T13:30:38.916Z,56.33
2019-02-05T13:33:09.312Z,55.03
2019-02-05T13:35:39.386Z,52.77
2019-02-05T13:38:08.157Z,45.70
2019-02-05T13:40:36.853Z,42.90
2019-02-05T13:43:06.578Z,50.27
2019-02-05T13:45:37.902Z,54.93
2019-02-05T13:48:07.355Z,46.47
2019-02-05T13:50:36.533Z,47.43
2019-02-05T13:53:06.145Z,47.63
2019-02-05T13:55:37.747Z,48.37
2019-02-05T13:58:06.633Z,45.30
2019-02-05T14:00:43.645Z,47.00
2019-02-05T14:03:13.420Z,43.43
2019-02-05T14:05:42.178Z,44.33
2019-02-05T14:08:11.056Z,45.73
2019-02-05T14:10:41.756Z,35.07
2019-02-05T14:13:10.397Z,31.80
2019-02-05T14:15:41.541Z,29.33
2019-02-05T14:18:10.954Z,29.00
2019-02-05T14:20:39.778Z,26.60
2019-02-05T14:23:08.740Z,29.87
2019-02-05T14:25:37.206Z,28.83
2019-02-05T14:28:05.809Z,30.17
2019-02-05T14:30:40.034Z,37.73
2019-02-05T14:33:08.808Z,37.47
2019-02-05T14:35:37.458Z,33.37
2019-02-05T14:38:07.141Z,35.70
2019-02-05T14:40:35.689Z,35.53
2019-02-05T14:43:04.717Z,31.47
2019-02-05T14:45:33.579Z,29.40
2019-02-05T14:48:02.296Z,33.13
2019-02-05T14:50:33.398Z,31.67
2019-02-05T14:53:02.341Z,31.30
2019-02-05T14:55:30.901Z,30.70
2019-02-05T14:57:59.431Z,32.70
2019-02-05T15:00:35.663Z,34.10
2019-02-05T15:03:06.975Z,31.57
2019-02-05T15:05:35.567Z,35.97
2019-02-05T15:08:05.959Z,30.47
2019-02-05T15:10:34.704Z,32.73
2019-02-05T15:13:05.461Z,34.43
2019-02-05T15:15:34.333Z,35.43
2019-02-05T15:18:04.855Z,38.43
2019-02-05T15:20:35.675Z,35.17
2019-02-05T15:23:05.383Z,31.27
2019-02-05T15:25:33.877Z,36.40
2019-02-05T15:28:02.345Z,30.00
2019-02-05T15:30:43.347Z,34.65
2019-02-05T15:33:21.350Z,32.33
2019-02-05T15:35:51.572Z,32.23
2019-02-05T15:38:20.179Z,56.77
2019-02-05T15:40:49.160Z,101.03
2019-02-05T15:43:17.671Z,97.60
2019-02-05T15:45:46.222Z,74.10
2019-02-05T15:48:14.767Z,50.53
2019-02-05T15:50:43.358Z,39.60
2019-02-05T15:53:11.890Z,40.83
2019-02-05T15:55:41.809Z,38.70
2019-02-05T15:58:10.334Z,33.83
2019-02-05T16:00:39.248Z,31.87
2019-02-05T16:03:08.271Z,35.70
2019-02-05T16:05:37.028Z,34.40
2019-02-05T16:08:06.408Z,35.83
2019-02-05T16:10:34.935Z,34.67
2019-02-05T16:13:03.517Z,39.53
2019-02-05T16:15:32.046Z,36.80
2019-02-05T16:18:00.580Z,36.70
2019-02-05T16:20:29.164Z,36.37
2019-02-05T16:22:57.770Z,38.47
2019-02-05T16:25:26.329Z,39.37
2019-02-05T16:27:55.198Z,40.73
2019-02-05T16:30:29.122Z,44.93
2019-02-05T16:32:57.647Z,40.53
2019-02-05T16:35:26.434Z,44.43
2019-02-05T16:37:55.621Z,40.83
2019-02-05T16:40:26.269Z,46.73
2019-02-05T16:42:55.439Z,43.47
2019-02-05T16:45:26.791Z,45.60
2019-02-05T16:47:55.398Z,43.40
2019-02-05T16:50:29.528Z,46.93
2019-02-05T16:52:58.299Z,53.00
2019-02-05T16:55:26.827Z,51.60
2019-02-05T16:57:55.423Z,53.13
2019-02-05T17:00:26.668Z,49.77
2019-02-05T17:02:55.988Z,51.63
2019-02-05T17:05:26.089Z,41.73
2019-02-05T17:07:54.660Z,38.73
2019-02-05T17:10:24.844Z,38.97
2019-02-05T17:12:53.805Z,47.83
2019-02-05T17:15:22.408Z,45.00
2019-02-05T17:17:51.007Z,27.17
2019-02-05T17:20:22.565Z,16.73
2019-02-05T17:22:51.265Z,30.07
2019-02-05T17:25:21.567Z,31.20
2019-02-05T17:27:50.943Z,19.33
2019-02-05T17:30:24.691Z,13.83
2019-02-05T17:32:53.308Z,12.50
2019-02-05T17:35:21.965Z,18.03
2019-02-05T17:37:50.861Z,18.17
2019-02-05T17:40:24.229Z,14.37
2019-02-05T17:42:53.876Z,11.87
2019-02-05T17:45:30.705Z,20.80
2019-02-05T17:48:01.323Z,11.70
2019-02-05T17:50:29.932Z,14.63
2019-02-05T17:52:58.943Z,18.27
2019-02-05T17:55:27.523Z,17.33
2019-02-05T17:57:56.087Z,10.30
2019-02-05T18:00:29.238Z,13.40
2019-02-05T18:02:57.890Z,16.50
2019-02-05T18:05:26.627Z,22.43
2019-02-05T18:07:55.639Z,16.83
2019-02-05T18:10:28.988Z,20.70
2019-02-05T18:12:57.588Z,20.40
2019-02-05T18:15:34.316Z,17.27
2019-02-05T18:18:04.011Z,13.87
2019-02-05T18:20:32.753Z,17.33
2019-02-05T18:23:02.844Z,18.27
2019-02-05T18:25:32.849Z,18.10
2019-02-05T18:28:02.296Z,23.30
2019-02-05T18:30:33.515Z,17.60
2019-02-05T18:33:04.626Z,20.23
2019-02-05T18:35:32.663Z,23.30
2019-02-05T18:38:02.348Z,22.10
2019-02-05T18:40:30.962Z,20.83
2019-02-05T18:42:59.680Z,20.70
2019-02-05T18:45:28.260Z,22.40
2019-02-05T18:47:56.867Z,19.77
2019-02-05T18:50:27.480Z,18.60
2019-02-05T18:52:56.040Z,22.87
2019-02-05T18:55:27.092Z,22.27
2019-02-05T18:57:55.585Z,15.67
2019-02-05T19:00:32.835Z,17.23
2019-02-05T19:03:01.525Z,18.23
2019-02-05T19:05:30.146Z,13.17
2019-02-05T19:07:59.037Z,17.13
2019-02-05T19:10:30.291Z,19.03
2019-02-05T19:12:59.894Z,16.13
2019-02-05T19:15:34.576Z,18.90
2019-02-05T19:18:04.056Z,20.20
2019-02-05T19:20:32.964Z,22.80
2019-02-05T19:23:03.016Z,16.47
2019-02-05T19:25:34.320Z,13.70
2019-02-05T19:28:02.933Z,15.50
2019-02-05T19:30:33.232Z,19.60
2019-02-05T19:33:02.089Z,20.63
2019-02-05T19:35:30.692Z,13.77
2019-02-05T19:37:59.286Z,11.97
2019-02-05T19:40:27.929Z,15.00
2019-02-05T19:42:56.451Z,16.87
2019-02-05T19:45:30.072Z,18.13
2019-02-05T19:48:00.627Z,18.87
2019-02-05T19:50:29.130Z,17.10
2019-02-05T19:52:57.770Z,12.23
2019-02-05T19:55:26.309Z,8.80
2019-02-05T19:57:56.273Z,18.00
2019-02-05T20:00:24.857Z,12.90
2019-02-05T20:02:55.460Z,12.57
2019-02-05T20:05:23.530Z,20.93
2019-02-05T20:07:52.235Z,19.77
2019-02-05T20:10:20.708Z,21.50
2019-02-05T20:12:49.236Z,24.17
2019-02-05T20:15:19.804Z,20.57
2019-02-05T20:17:50.241Z,22.50
2019-02-05T20:20:20.281Z,15.90
2019-02-05T20:22:49.063Z,23.80
2019-02-05T20:25:20.437Z,23.07
2019-02-05T20:27:48.978Z,25.17
2019-02-05T20:30:20.652Z,24.77
2019-02-05T20:32:49.116Z,24.73
2019-02-05T20:35:17.724Z,23.43
2019-02-05T20:37:46.517Z,24.13
2019-02-05T20:40:20.477Z,27.07
2019-02-05T20:42:49.171Z,27.60
2019-02-05T20:45:17.772Z,27.37
2019-02-05T20:47:46.324Z,23.83
2019-02-05T20:50:18.985Z,24.07
2019-02-05T20:52:47.697Z,26.83
2019-02-05T20:55:17.990Z,21.23
2019-02-05T20:57:47.093Z,25.13
2019-02-05T21:00:27.298Z,24.23
2019-02-05T21:02:55.850Z,23.63
2019-02-05T21:05:24.497Z,22.40
2019-02-05T21:07:53.169Z,21.50
2019-02-05T21:10:26.590Z,22.27
2019-02-05T21:12:55.202Z,25.13
2019-02-05T21:15:24.366Z,24.83
2019-02-05T21:17:53.086Z,21.20
2019-02-05T21:20:33.225Z,22.27
2019-02-05T21:23:00.813Z,24.47
2019-02-05T21:25:29.449Z,25.03
2019-02-05T21:27:58.726Z,24.43
2019-02-05T21:30:27.712Z,23.17
2019-02-05T21:32:56.302Z,26.17
2019-02-05T21:35:25.037Z,25.97
2019-02-05T21:37:56.636Z,24.67
2019-02-05T21:40:27.968Z,25.77
2019-02-05T21:42:56.724Z,22.57
2019-02-05T21:45:30.746Z,19.67
2019-02-05T21:47:59.217Z,24.90
2019-02-05T21:50:27.969Z,23.90
2019-02-05T21:52:57.058Z,23.27
2019-02-05T21:55:26.857Z,22.97
2019-02-05T21:57:56.350Z,21.33
2019-02-05T22:00:35.524Z,25.20
2019-02-05T22:03:05.392Z,25.43
2019-02-05T22:05:34.965Z,19.63
2019-02-05T22:08:04.192Z,27.23
2019-02-05T22:10:32.869Z,27.00
2019-02-05T22:13:01.396Z,24.97
2019-02-05T22:15:30.409Z,28.63
2019-02-05T22:17:59.099Z,26.53
2019-02-05T22:20:30.949Z,27.10
2019-02-05T22:23:01.171Z,26.20
2019-02-05T22:25:32.274Z,25.90
2019-02-05T22:28:01.152Z,29.27
2019-02-05T22:30:37.884Z,23.50
2019-02-05T22:33:08.004Z,28.77
2019-02-05T22:35:36.482Z,26.10
2019-02-05T22:38:06.450Z,25.37
2019-02-05T22:40:34.983Z,16.33
2019-02-05T22:43:04.159Z,20.17
2019-02-05T22:45:33.000Z,21.47
2019-02-05T22:48:01.631Z,22.37
2019-02-05T22:50:32.664Z,21.30
2019-02-05T22:53:02.313Z,19.33
2019-02-05T22:55:30.809Z,19.57
2019-02-05T22:57:59.375Z,22.27
2019-02-05T23:00:50.623Z,22.63
2019-02-05T23:03:37.585Z,21.63
2019-02-05T23:06:29.374Z,23.63
2019-02-05T23:09:01.337Z,24.90
2019-02-05T23:11:44.821Z,21.90
2019-02-05T23:14:14.349Z,22.50
2019-02-05T23:16:43.303Z,20.97
2019-02-05T23:19:11.984Z,23.80
2019-02-05T23:21:40.765Z,22.60
2019-02-05T23:24:09.771Z,21.27
2019-02-05T23:26:38.282Z,22.40
2019-02-05T23:29:06.892Z,23.33
2019-02-05T23:31:35.516Z,25.17
2019-02-05T23:34:04.087Z,26.63
2019-02-05T23:36:32.550Z,24.73
2019-02-05T23:39:01.012Z,24.17
2019-02-05T23:41:30.505Z,25.80
2019-02-05T23:43:59.039Z,26.47
2019-02-05T23:46:28.517Z,27.20
2019-02-05T23:48:57.223Z,30.23
2019-02-05T23:51:25.916Z,25.80
2019-02-05T23:53:54.660Z,25.03
2019-02-05T23:56:25.593Z,19.20
2019-02-05T23:58:53.364Z,23.03
